Time;durP1;ratioP1;P1;durP2;ratioP2;P2;SDS_P1;SDS_P2;PMS_P1;PMS_P2;Temp;Humidity;BMP_temperature;BMP_pressure;BME280_temperature;BME280_humidity;BME280_pressure;Samples;Min_cycle;Max_cycle;Signal;HPM_P1;HPM_P2
2023/04/18 00:02:37;;;;;;;8.63;5.63;;;9.40;99.90;;;;;;10427917;28;20209;-72
2023/04/18 00:07:38;;;;;;;12.07;6.40;;;9.30;99.90;;;;;;10436360;28;20314;-72
2023/04/18 00:12:38;;;;;;;10.77;6.17;;;9.40;99.90;;;;;;10430612;28;20350;-73
2023/04/18 00:17:39;;;;;;;15.80;6.37;;;9.40;99.90;;;;;;10428009;28;20232;-73
2023/04/18 00:22:45;;;;;;;10.23;6.50;;;9.40;99.90;;;;;;10436037;28;20314;-71
2023/04/18 00:27:45;;;;;;;8.60;5.93;;;9.40;99.90;;;;;;10426413;28;20444;-72
2023/04/18 00:32:46;;;;;;;9.57;6.27;;;9.40;99.90;;;;;;10435761;28;20350;-73
2023/04/18 00:37:46;;;;;;;9.53;5.97;;;9.30;99.90;;;;;;10433315;28;20250;-71
2023/04/18 00:42:47;;;;;;;12.73;6.20;;;9.30;99.90;;;;;;10429878;28;20220;-71
2023/04/18 00:47:48;;;;;;;8.87;5.60;;;9.40;99.90;;;;;;10429970;28;20220;-72
2023/04/18 00:52:48;;;;;;;9.80;6.40;;;9.40;99.90;;;;;;10428342;28;20230;-72
2023/04/18 00:57:50;;;;;;;8.23;5.73;;;9.30;99.90;;;;;;10426659;28;20227;-74
2023/04/18 01:02:54;;;;;;;11.20;6.20;;;9.40;99.90;;;;;;10432184;28;20230;-71
2023/04/18 01:07:59;;;;;;;12.53;7.37;;;9.30;99.90;;;;;;10423901;28;20641;-70
2023/04/18 01:13:10;;;;;;;9.63;6.27;;;9.30;99.90;;;;;;10424285;28;20224;-72
2023/04/18 01:18:12;;;;;;;14.27;6.00;;;9.20;99.90;;;;;;10422147;28;20228;-72
2023/04/18 01:23:17;;;;;;;13.33;7.47;;;9.10;99.90;;;;;;10428145;28;20231;-70
2023/04/18 01:28:20;;;;;;;15.13;7.97;;;9.00;99.90;;;;;;10430196;28;20683;-73
2023/04/18 01:33:21;;;;;;;14.40;8.37;;;8.90;99.90;;;;;;10424579;28;20300;-73
2023/04/18 01:38:21;;;;;;;15.97;7.60;;;8.70;99.90;;;;;;10426586;28;20358;-70
2023/04/18 01:43:22;;;;;;;13.27;6.90;;;8.50;99.90;;;;;;10431838;28;20816;-70
2023/04/18 01:48:22;;;;;;;10.50;6.93;;;8.40;99.90;;;;;;10423919;28;20587;-70
2023/04/18 01:53:24;;;;;;;14.03;7.17;;;8.20;99.90;;;;;;10423101;28;20226;-70
2023/04/18 01:58:25;;;;;;;9.03;6.10;;;8.10;99.90;;;;;;10424412;28;20231;-70
2023/04/18 02:03:26;;;;;;;11.83;7.40;;;8.00;99.90;;;;;;10422290;28;20216;-70
2023/04/18 02:08:26;;;;;;;12.87;7.20;;;7.90;99.90;;;;;;10419753;28;20220;-70
2023/04/18 02:13:27;;;;;;;11.27;8.00;;;7.80;99.90;;;;;;10429966;28;20230;-68
2023/04/18 02:18:29;;;;;;;18.37;8.87;;;7.80;99.90;;;;;;10424221;28;20812;-70
2023/04/18 02:23:29;;;;;;;17.20;8.90;;;7.70;99.90;;;;;;10422066;28;20241;-71
2023/04/18 02:28:30;;;;;;;17.70;9.30;;;7.70;99.90;;;;;;10429429;28;20622;-69
2023/04/18 02:33:32;;;;;;;12.27;8.07;;;7.60;99.90;;;;;;10431413;28;20223;-68
2023/04/18 02:38:38;;;;;;;12.83;7.93;;;7.60;99.90;;;;;;10409919;28;20266;-69
2023/04/18 02:43:40;;;;;;;12.27;7.57;;;7.50;99.90;;;;;;10430364;28;20229;-68
2023/04/18 02:48:40;;;;;;;13.90;8.03;;;7.40;99.90;;;;;;10429781;28;20744;-68
2023/04/18 02:53:41;;;;;;;15.50;8.27;;;7.40;99.90;;;;;;10412173;28;20285;-68
2023/04/18 02:58:42;;;;;;;12.50;7.67;;;7.30;99.90;;;;;;10424057;28;20236;-71
2023/04/18 03:03:42;;;;;;;11.10;8.10;;;7.20;99.90;;;;;;10416026;28;20699;-69
2023/04/18 03:08:43;;;;;;;11.50;8.03;;;7.20;99.90;;;;;;10421640;28;20236;-69
2023/04/18 03:13:43;;;;;;;13.13;8.00;;;7.20;99.90;;;;;;10425836;28;20220;-68
2023/04/18 03:18:44;;;;;;;14.63;8.80;;;7.20;99.90;;;;;;10421330;28;20647;-72
2023/04/18 03:23:45;;;;;;;13.93;9.03;;;7.20;99.90;;;;;;10423146;28;20228;-71
2023/04/18 03:28:45;;;;;;;19.00;10.70;;;7.20;99.90;;;;;;10433702;28;20223;-67
2023/04/18 03:33:47;;;;;;;18.13;10.43;;;7.10;99.90;;;;;;10429866;28;20252;-68
2023/04/18 03:38:50;;;;;;;14.90;10.00;;;7.10;99.90;;;;;;10431197;28;20694;-69
2023/04/18 03:43:51;;;;;;;14.43;9.33;;;7.10;99.90;;;;;;10434475;28;20220;-68
2023/04/18 03:48:51;;;;;;;14.90;9.73;;;7.00;99.90;;;;;;10437376;28;20228;-71
2023/04/18 03:53:52;;;;;;;19.03;10.87;;;7.00;99.90;;;;;;10438342;28;20312;-70
2023/04/18 03:58:57;;;;;;;23.17;11.57;;;7.00;99.90;;;;;;10419085;28;20216;-71
2023/04/18 04:03:58;;;;;;;12.37;9.73;;;7.00;99.90;;;;;;10426975;28;20694;-69
2023/04/18 04:09:05;;;;;;;17.80;10.20;;;7.00;99.90;;;;;;10431927;28;20266;-71
2023/04/18 04:14:06;;;;;;;15.30;11.20;;;7.00;99.90;;;;;;10430471;28;20867;-69
2023/04/18 04:19:08;;;;;;;18.73;12.20;;;7.00;99.90;;;;;;10436324;28;20335;-74
2023/04/18 04:24:09;;;;;;;21.03;12.33;;;7.00;99.90;;;;;;10428985;28;20224;-73
2023/04/18 04:29:09;;;;;;;20.10;11.47;;;7.00;99.90;;;;;;10404710;28;20797;-74
2023/04/18 04:34:10;;;;;;;16.87;11.10;;;7.00;99.90;;;;;;10424792;28;20300;-74
2023/04/18 04:39:11;;;;;;;14.07;10.90;;;6.90;99.90;;;;;;10425539;28;20593;-67
2023/04/18 04:44:16;;;;;;;16.83;11.93;;;6.90;99.90;;;;;;10429541;28;20236;-68
2023/04/18 04:49:17;;;;;;;17.10;12.07;;;6.90;99.90;;;;;;10427894;28;20223;-68
2023/04/18 04:54:18;;;;;;;16.47;12.30;;;6.80;99.90;;;;;;10428169;28;20228;-68
2023/04/18 04:59:18;;;;;;;19.43;12.77;;;6.90;99.90;;;;;;10424707;28;20224;-66
2023/04/18 05:04:19;;;;;;;19.47;13.60;;;6.90;99.90;;;;;;10430905;28;20235;-67
2023/04/18 05:09:20;;;;;;;16.80;13.87;;;7.00;99.90;;;;;;10426893;28;20217;-73
2023/04/18 05:14:21;;;;;;;19.10;13.30;;;7.10;99.90;;;;;;10406973;28;20220;-75
2023/04/18 05:19:22;;;;;;;18.53;13.90;;;7.20;99.90;;;;;;10429696;28;20683;-74
2023/04/18 05:24:22;;;;;;;21.13;14.67;;;7.40;99.90;;;;;;10435211;28;20235;-73
2023/04/18 05:29:24;;;;;;;24.67;14.17;;;7.60;99.90;;;;;;10426443;28;20235;-75
2023/04/18 05:34:24;;;;;;;24.47;16.40;;;7.80;99.90;;;;;;10427281;28;20309;-73
2023/04/18 05:39:25;;;;;;;17.83;13.90;;;7.80;99.90;;;;;;10424901;28;20218;-74
2023/04/18 05:44:25;;;;;;;17.60;14.10;;;8.00;99.90;;;;;;10431018;28;20219;-74
2023/04/18 05:49:26;;;;;;;16.20;13.90;;;8.20;99.90;;;;;;10431556;28;20573;-74
2023/04/18 05:54:27;;;;;;;17.63;12.63;;;8.40;99.90;;;;;;10427493;28;20227;-74
2023/04/18 05:59:28;;;;;;;20.10;13.40;;;8.50;99.90;;;;;;10421217;28;20263;-75
2023/04/18 06:04:28;;;;;;;17.93;13.50;;;8.60;99.90;;;;;;10432289;28;20223;-74
2023/04/18 06:09:29;;;;;;;15.83;13.17;;;8.70;99.90;;;;;;10422968;28;20228;-73
2023/04/18 06:14:30;;;;;;;18.07;12.83;;;8.70;99.90;;;;;;10431168;28;20276;-74
2023/04/18 06:19:30;;;;;;;20.93;13.33;;;8.80;99.90;;;;;;10423233;28;20262;-73
2023/04/18 06:24:31;;;;;;;16.40;12.73;;;8.80;99.90;;;;;;10430589;28;20226;-74
2023/04/18 06:29:32;;;;;;;19.70;12.73;;;8.70;99.90;;;;;;10416343;28;20281;-74
2023/04/18 06:34:33;;;;;;;15.40;11.67;;;8.80;99.90;;;;;;10439666;28;20240;-75
2023/04/18 06:39:34;;;;;;;14.40;11.40;;;9.00;99.90;;;;;;10416688;28;20326;-75
2023/04/18 06:44:35;;;;;;;13.30;10.97;;;9.00;99.90;;;;;;10400902;28;20243;-74
2023/04/18 06:49:36;;;;;;;14.83;11.67;;;8.90;99.90;;;;;;10405440;28;20733;-74
2023/04/18 06:54:36;;;;;;;16.33;11.00;;;8.90;99.90;;;;;;10391600;28;20228;-73
2023/04/18 06:59:37;;;;;;;17.47;12.63;;;9.10;99.90;;;;;;10409710;28;20230;-72
2023/04/18 07:04:39;;;;;;;19.87;12.93;;;9.10;99.90;;;;;;10424116;28;20258;-73
2023/04/18 07:09:39;;;;;;;14.63;11.73;;;9.10;99.90;;;;;;10415611;28;20351;-74
2023/04/18 07:14:40;;;;;;;15.97;11.00;;;9.30;99.90;;;;;;10419094;28;20231;-74
2023/04/18 07:19:41;;;;;;;12.47;10.50;;;9.60;99.90;;;;;;10416749;28;20219;-74
2023/04/18 07:24:42;;;;;;;17.70;12.47;;;9.70;99.90;;;;;;10433211;28;20289;-75
2023/04/18 07:29:43;;;;;;;13.33;10.47;;;9.80;99.90;;;;;;10415069;28;20227;-72
2023/04/18 07:34:44;;;;;;;14.47;10.80;;;9.80;99.90;;;;;;10425790;28;20262;-74
2023/04/18 07:39:45;;;;;;;12.70;11.20;;;9.80;99.90;;;;;;10433467;28;20700;-73
2023/04/18 07:44:45;;;;;;;12.40;11.00;;;9.80;99.90;;;;;;10416525;28;20224;-73
2023/04/18 07:49:47;;;;;;;16.73;10.83;;;9.90;99.90;;;;;;10432193;28;20282;-75
2023/04/18 07:54:48;;;;;;;13.20;9.90;;;9.90;99.90;;;;;;10418820;28;20280;-76
2023/04/18 07:59:52;;;;;;;14.90;10.10;;;10.10;99.90;;;;;;10428445;28;20630;-75
2023/04/18 08:04:54;;;;;;;14.33;11.13;;;10.00;99.90;;;;;;10415659;28;20220;-74
2023/04/18 08:09:55;;;;;;;13.37;9.90;;;9.90;99.90;;;;;;10420503;28;20367;-75
2023/04/18 08:14:56;;;;;;;11.37;9.70;;;10.00;99.90;;;;;;10411624;28;20231;-75
2023/04/18 08:19:56;;;;;;;14.00;9.73;;;10.10;99.90;;;;;;10419028;28;20246;-75
2023/04/18 08:24:57;;;;;;;14.93;10.57;;;10.30;99.90;;;;;;10428192;28;20699;-77
2023/04/18 08:29:58;;;;;;;12.70;9.60;;;10.50;99.90;;;;;;10418635;28;20263;-76
2023/04/18 08:34:59;;;;;;;14.40;10.20;;;10.50;99.90;;;;;;10402594;28;20694;-75
2023/04/18 08:40:02;;;;;;;13.27;9.80;;;10.70;99.90;;;;;;10435469;28;20247;-76
2023/04/18 08:45:08;;;;;;;11.90;9.07;;;10.70;99.90;;;;;;10431158;28;20282;-74
2023/04/18 08:50:10;;;;;;;11.73;9.40;;;10.70;99.90;;;;;;10408063;28;20364;-75
2023/04/18 08:55:10;;;;;;;9.10;8.17;;;11.20;99.90;;;;;;10421463;28;20293;-74
2023/04/18 09:00:12;;;;;;;12.67;8.87;;;11.40;99.90;;;;;;10422240;28;20261;-75
2023/04/18 09:05:18;;;;;;;9.23;7.57;;;11.90;99.90;;;;;;10414512;28;20550;-76
2023/04/18 09:10:31;;;;;;;11.77;8.27;;;12.30;99.90;;;;;;10414408;28;20185;-74
2023/04/18 09:15:41;;;;;;;10.30;8.17;;;12.20;99.90;;;;;;10428840;28;20239;-75
2023/04/18 09:20:46;;;;;;;12.27;8.23;;;12.20;99.90;;;;;;10406213;28;20216;-75
2023/04/18 09:25:49;;;;;;;10.53;8.13;;;12.60;99.90;;;;;;10416174;28;20221;-76
2023/04/18 09:30:51;;;;;;;12.53;8.20;;;13.70;99.90;;;;;;10416232;28;20313;-76
2023/04/18 09:35:52;;;;;;;8.30;7.37;;;14.30;99.90;;;;;;10425711;28;20224;-74
2023/04/18 09:41:10;;;;;;;9.77;7.57;;;15.20;99.90;;;;;;10419343;28;20229;-74
2023/04/18 09:46:13;;;;;;;7.70;6.50;;;15.30;99.90;;;;;;10409990;28;20231;-76
2023/04/18 09:51:15;;;;;;;9.07;7.10;;;15.30;99.90;;;;;;10416284;28;20221;-74
2023/04/18 09:56:26;;;;;;;7.30;6.60;;;15.10;99.90;;;;;;10397752;28;20228;-73
2023/04/18 10:01:28;;;;;;;7.50;6.53;;;15.70;99.90;;;;;;10435917;28;20232;-73
2023/04/18 10:06:32;;;;;;;7.90;6.23;;;17.40;99.90;;;;;;10396581;28;20245;-75
2023/04/18 10:11:33;;;;;;;8.53;6.43;;;18.10;99.90;;;;;;10396150;28;20216;-75
2023/04/18 10:16:34;;;;;;;6.50;5.73;;;18.90;98.10;;;;;;10419369;28;20690;-74
2023/04/18 10:21:35;;;;;;;6.53;5.93;;;20.90;90.70;;;;;;10420261;28;20215;-75
2023/04/18 10:26:46;;;;;;;8.73;6.30;;;21.20;84.80;;;;;;10412166;28;20286;-76
2023/04/18 10:31:46;;;;;;;6.43;5.30;;;22.00;78.50;;;;;;10403207;28;20610;-76
2023/04/18 10:37:03;;;;;;;6.23;4.90;;;21.90;76.00;;;;;;10406637;28;20229;-75
2023/04/18 10:49:04;;;;;;;6.10;5.50;;;22.50;70.30;;;;;;10332580;28;20285;-74
2023/04/18 11:19:02;;;;;;;;;;;;;;;;;;;;;
2023/04/18 11:24:42;;;;;;;;;;;;;;;;;;;;;
2023/04/18 11:30:33;;;;;;;;;;;;;;;;;;;;;
2023/04/18 11:59:28;;;;;;;6.80;3.80;;;17.50;85.80;;;;;;10271985;28;20193;-75
2023/04/18 12:04:51;;;;;;;5.67;3.50;;;17.50;86.40;;;;;;10413889;28;20219;-74
2023/04/18 12:09:52;;;;;;;4.30;3.90;;;17.70;87.30;;;;;;10413848;28;20280;-75
2023/04/18 12:15:05;;;;;;;4.00;3.67;;;17.70;87.40;;;;;;10414323;28;20224;-73
2023/04/18 12:20:09;;;;;;;3.63;3.33;;;17.20;89.00;;;;;;10426183;28;20222;-75
2023/04/18 12:25:23;;;;;;;4.27;3.87;;;17.20;89.60;;;;;;10394443;28;20308;-73
2023/04/18 12:30:25;;;;;;;4.30;3.50;;;16.60;90.50;;;;;;10419867;28;20225;-74
2023/04/18 12:35:28;;;;;;;3.57;3.23;;;16.40;91.30;;;;;;10404816;28;20247;-75
2023/04/18 12:40:29;;;;;;;3.93;3.30;;;16.10;91.70;;;;;;10402761;28;20293;-74
2023/04/18 12:45:30;;;;;;;3.57;3.27;;;16.00;91.70;;;;;;10402510;28;20252;-75
2023/04/18 12:50:31;;;;;;;4.33;3.13;;;15.90;92.70;;;;;;10424519;28;20267;-75
2023/04/18 12:55:32;;;;;;;4.27;3.87;;;15.80;93.30;;;;;;10426132;28;20232;-75
2023/04/18 13:00:33;;;;;;;4.60;3.90;;;15.90;92.90;;;;;;10425586;28;20668;-74
2023/04/18 13:05:34;;;;;;;3.93;3.63;;;16.30;92.10;;;;;;10411609;28;20224;-75
2023/04/18 13:10:37;;;;;;;3.90;3.60;;;16.40;91.90;;;;;;10402211;28;20294;-75
2023/04/18 13:15:38;;;;;;;9.97;3.90;;;16.40;92.00;;;;;;10416087;28;20639;-74
2023/04/18 13:20:39;;;;;;;4.20;3.80;;;16.70;91.00;;;;;;10407391;28;20237;-75
2023/04/18 13:25:40;;;;;;;3.80;3.50;;;16.70;90.30;;;;;;10422496;28;20221;-75
2023/04/18 13:30:40;;;;;;;4.60;4.20;;;16.60;91.10;;;;;;10430696;28;20680;-75
2023/04/18 13:35:41;;;;;;;5.40;4.03;;;16.20;92.10;;;;;;10424980;28;20337;-75
2023/04/18 13:40:42;;;;;;;4.20;3.80;;;16.40;92.60;;;;;;10423098;28;20222;-75
2023/04/18 13:45:42;;;;;;;4.57;4.03;;;16.40;92.40;;;;;;10430417;28;20299;-75
2023/04/18 13:50:43;;;;;;;5.03;3.73;;;16.60;92.40;;;;;;10421885;28;20219;-75
2023/04/18 13:55:44;;;;;;;4.40;4.00;;;16.80;92.00;;;;;;10423001;28;20231;-75
2023/04/18 14:00:45;;;;;;;5.83;4.17;;;16.80;91.10;;;;;;10425863;28;20252;-76
2023/04/18 14:05:46;;;;;;;7.67;4.27;;;16.90;91.80;;;;;;10425336;28;20329;-74
2023/04/18 14:10:46;;;;;;;6.77;4.57;;;16.90;91.60;;;;;;10421734;28;20622;-75
2023/04/18 14:15:47;;;;;;;5.10;4.33;;;16.50;92.10;;;;;;10427636;28;20615;-74
2023/04/18 14:20:48;;;;;;;5.77;4.30;;;16.50;92.50;;;;;;10401768;28;20214;-74
2023/04/18 14:25:48;;;;;;;4.60;4.10;;;16.70;91.30;;;;;;10426515;28;20224;-74
2023/04/18 14:30:50;;;;;;;5.63;4.97;;;16.60;90.60;;;;;;10424524;28;20232;-75
2023/04/18 14:35:51;;;;;;;4.47;4.07;;;16.70;91.10;;;;;;10429326;28;20235;-75
2023/04/18 14:40:52;;;;;;;7.13;4.57;;;16.30;91.50;;;;;;10408049;28;20567;-75
2023/04/18 14:45:53;;;;;;;5.97;4.27;;;16.20;91.90;;;;;;10419485;28;20228;-74
2023/04/18 14:50:58;;;;;;;7.40;4.97;;;16.30;92.20;;;;;;10424698;28;20265;-76
2023/04/18 14:55:59;;;;;;;4.97;4.27;;;16.40;91.90;;;;;;10427805;28;20280;-75
2023/04/18 15:01:00;;;;;;;7.03;4.90;;;16.40;91.80;;;;;;10430111;28;20286;-74
2023/04/18 15:06:00;;;;;;;4.77;4.30;;;16.20;92.10;;;;;;10415481;28;20316;-75
2023/04/18 15:11:07;;;;;;;5.60;4.50;;;16.00;92.90;;;;;;10422016;28;20656;-74
2023/04/18 15:16:08;;;;;;;4.97;4.53;;;15.70;92.80;;;;;;10423257;28;20235;-75
2023/04/18 15:21:09;;;;;;;4.87;4.37;;;15.70;92.80;;;;;;10416109;28;20224;-74
2023/04/18 15:26:10;;;;;;;5.13;4.40;;;15.90;92.50;;;;;;10432694;28;20212;-74
2023/04/18 15:31:13;;;;;;;5.60;4.63;;;15.80;92.20;;;;;;10431877;28;20323;-75
2023/04/18 15:36:13;;;;;;;5.47;4.17;;;15.80;92.70;;;;;;10434812;28;20933;-76
2023/04/18 15:41:14;;;;;;;5.40;4.30;;;15.90;92.00;;;;;;10430689;28;20228;-75
2023/04/18 15:46:15;;;;;;;5.47;4.50;;;15.80;91.60;;;;;;10434719;28;20235;-74
2023/04/18 15:51:16;;;;;;;4.93;4.20;;;15.80;91.90;;;;;;10430854;28;20254;-75
2023/04/18 15:56:16;;;;;;;7.33;4.83;;;15.80;92.10;;;;;;10430562;28;20287;-75
2023/04/18 16:09:09;;;;;;;;;;;;;;;;;;;;;
2023/04/18 16:26:28;;;;;;;;;;;;;;;;;;;;;
2023/04/18 16:31:32;;;;;;;4.10;3.70;;;15.10;92.70;;;;;;10255989;28;20643;-71
2023/04/18 16:36:42;;;;;;;5.77;3.40;;;15.00;93.20;;;;;;10427485;28;20235;-72
2023/04/18 16:42:11;;;;;;;5.37;3.87;;;15.10;92.70;;;;;;10417664;28;20271;-72
2023/04/18 17:00:01;;;;;;;;;;;;;;;;;;;;;
2023/04/18 17:23:20;;;;;;;;;;;;;;;;;;;;;
2023/04/18 17:35:35;;;;;;;4.87;4.10;;;14.30;95.30;;;;;;10155669;29;20240;-75
2023/04/18 17:47:01;;;;;;;;;;;;;;;;;;;;;
2023/04/18 17:52:31;;;;;;;;;;;;;;;;;;;;;
2023/04/18 17:57:40;;;;;;;5.30;4.80;;;13.90;97.40;;;;;;10428759;28;20251;-75
2023/04/18 18:02:59;;;;;;;5.20;4.70;;;13.80;98.20;;;;;;10409052;28;20311;-75
2023/04/18 18:08:16;;;;;;;7.83;4.80;;;13.80;98.90;;;;;;10426289;28;20223;-74
2023/04/18 18:13:43;;;;;;;;;;;;;;;;;;;;;
2023/04/18 18:19:14;;;;;;;5.77;5.23;;;13.60;99.70;;;;;;10405602;28;20282;-74
2023/04/18 18:24:29;;;;;;;;;;;;;;;;;;;;;
2023/04/18 18:30:00;;;;;;;6.10;5.07;;;13.50;99.90;;;;;;10423151;28;20231;-75
2023/04/18 18:35:15;;;;;;;5.93;5.33;;;13.40;99.90;;;;;;10409825;28;20323;-75
2023/04/18 18:40:41;;;;;;;7.20;4.87;;;13.30;99.90;;;;;;10407182;28;20995;-75
2023/04/18 18:46:00;;;;;;;6.67;5.50;;;13.30;99.90;;;;;;10373915;28;20213;-75
2023/04/18 18:51:43;;;;;;;5.83;5.30;;;13.20;99.90;;;;;;10418116;28;20714;-75
2023/04/18 18:56:46;;;;;;;7.00;5.40;;;13.10;99.90;;;;;;10416037;28;20278;-75
2023/04/18 19:02:43;;;;;;;;;;;;;;;;;;;;;
2023/04/18 19:08:02;;;;;;;9.47;6.50;;;12.90;99.90;;;;;;10369380;28;20235;-73
2023/04/18 19:13:47;;;;;;;8.90;6.23;;;12.90;99.90;;;;;;10389867;28;20303;-74
2023/04/18 19:25:32;;;;;;;;;;;;;;;;;;;;;
2023/04/18 19:31:44;;;;;;;;;;;;;;;;;;;;;
2023/04/18 19:37:04;;;;;;;;;;;;;;;;;;;;;
2023/04/18 19:49:26;;;;;;;;;;;;;;;;;;;;;
2023/04/18 20:01:10;;;;;;;;;;;;;;;;;;;;;
2023/04/18 20:06:52;;;;;;;8.33;7.20;;;12.60;99.90;;;;;;10362575;28;20213;-73
2023/04/18 20:12:27;;;;;;;7.53;6.70;;;12.50;99.90;;;;;;10340275;28;20220;-73
2023/04/18 20:35:12;;;;;;;10.80;7.10;;;12.40;99.90;;;;;;10398599;28;20216;-73
2023/04/18 20:40:53;;;;;;;9.07;7.30;;;12.40;99.90;;;;;;10409151;28;20220;-73
2023/04/18 20:46:12;;;;;;;;;;;;;;;;;;;;;
2023/04/18 20:51:16;;;;;;;8.83;7.00;;;12.30;99.90;;;;;;10390922;28;20619;-75
2023/04/18 20:56:30;;;;;;;8.03;7.07;;;12.30;99.90;;;;;;10398622;28;20320;-71
2023/04/18 21:01:31;;;;;;;8.07;7.23;;;12.30;99.90;;;;;;10326417;28;20354;-71
2023/04/18 21:06:42;;;;;;;;;;;;;;;;;;;;;
2023/04/18 21:11:43;;;;;;;9.33;7.20;;;12.20;99.90;;;;;;10419413;28;20809;-69
2023/04/18 21:16:43;;;;;;;7.60;6.77;;;12.20;99.90;;;;;;10424623;28;20243;-68
2023/04/18 21:21:44;;;;;;;7.43;6.50;;;12.20;99.90;;;;;;10424294;28;20722;-70
2023/04/18 21:26:44;;;;;;;9.70;7.07;;;12.20;99.90;;;;;;10431983;28;20251;-69
2023/04/18 21:31:47;;;;;;;7.73;6.67;;;12.20;99.90;;;;;;10426466;28;20274;-68
2023/04/18 21:36:48;;;;;;;11.13;6.60;;;12.20;99.90;;;;;;10431517;28;20282;-68
2023/04/18 21:41:48;;;;;;;7.90;6.60;;;12.10;99.90;;;;;;10419911;28;20359;-71
2023/04/18 21:46:49;;;;;;;8.30;6.70;;;12.10;99.90;;;;;;10430409;28;20224;-69
2023/04/18 21:51:50;;;;;;;6.43;5.83;;;12.10;99.90;;;;;;10419278;28;20262;-69
2023/04/18 21:56:50;;;;;;;13.40;6.97;;;12.10;99.90;;;;;;10429682;28;20224;-69
2023/04/18 22:01:51;;;;;;;8.00;6.57;;;12.10;99.90;;;;;;10420728;28;20751;-69
2023/04/18 22:06:57;;;;;;;7.13;6.00;;;12.00;99.90;;;;;;10397037;28;20261;-69
2023/04/18 22:11:58;;;;;;;7.07;6.13;;;11.90;99.90;;;;;;10408710;28;20246;-68
2023/04/18 22:17:04;;;;;;;8.17;5.90;;;11.90;99.90;;;;;;10426492;28;20223;-68
2023/04/18 22:22:05;;;;;;;6.33;5.73;;;11.90;99.90;;;;;;10427346;28;20766;-70
2023/04/18 22:27:05;;;;;;;7.03;5.43;;;11.80;99.90;;;;;;10424981;28;20211;-69
2023/04/18 22:32:06;;;;;;;5.80;5.20;;;11.80;99.90;;;;;;10418087;28;20208;-69
2023/04/18 22:37:07;;;;;;;6.80;5.20;;;11.80;99.90;;;;;;10425719;28;20258;-67
2023/04/18 22:42:07;;;;;;;7.80;5.27;;;11.80;99.90;;;;;;10415127;28;20224;-69
2023/04/18 22:47:08;;;;;;;5.40;4.90;;;11.80;99.90;;;;;;10424553;28;20215;-70
2023/04/18 22:52:08;;;;;;;5.40;4.30;;;11.70;99.90;;;;;;10413886;28;20206;-67
2023/04/18 22:57:09;;;;;;;4.73;4.33;;;11.70;99.90;;;;;;10421453;28;20238;-69
2023/04/18 23:02:11;;;;;;;4.60;4.20;;;11.70;99.90;;;;;;10422252;28;20285;-68
2023/04/18 23:07:12;;;;;;;8.30;4.47;;;11.70;99.90;;;;;;10425096;28;20621;-69
2023/04/18 23:12:12;;;;;;;4.93;4.17;;;11.70;99.90;;;;;;10425651;28;20220;-69
2023/04/18 23:17:14;;;;;;;4.13;3.73;;;11.70;99.90;;;;;;10423084;28;20237;-71
2023/04/18 23:22:15;;;;;;;6.13;3.70;;;11.70;99.90;;;;;;10433818;28;20967;-70
2023/04/18 23:27:15;;;;;;;4.47;4.00;;;11.70;99.90;;;;;;10411146;28;20714;-69
2023/04/18 23:32:16;;;;;;;5.40;4.33;;;11.70;99.90;;;;;;10427638;28;20704;-70
2023/04/18 23:37:16;;;;;;;5.77;3.80;;;11.70;99.90;;;;;;10420947;28;20220;-71
2023/04/18 23:42:17;;;;;;;4.93;4.00;;;11.60;99.90;;;;;;10425479;28;20232;-70
2023/04/18 23:47:17;;;;;;;4.80;3.80;;;11.60;99.90;;;;;;10431039;28;20293;-70
2023/04/18 23:52:18;;;;;;;4.57;4.17;;;11.60;99.90;;;;;;10428560;28;20224;-70
2023/04/18 23:57:19;;;;;;;4.70;3.77;;;11.60;99.90;;;;;;10436349;28;20227;-70
